PWSweather.com
Personal Weather Stations
Station Observations
COONRAPIDS
Minneapolis, MN 55433

Minneapolis, MN 55433

Lat: 45.187721, Lon: -93.36828

Elevation: 898

Station Type: Davis Vantage Pro 2

High Low Average
Temperature 66.9°F19.4°C 40.7°F4.8°C 53.4°F11.9°C
Dew Point 49.1°F9.5°C 37.7°F3.2°C 42.5°F5.8°C
Winds 1.2 mph 1.9 kmh Calm Calm Calm ESECalm ESE
Wind Gusts 6.9 mph11.1 kmh -- --
Humidity 90% 45% 70%
Pressure 30.35 in1027.8 mb 30.13 in1020.3 mb -
Precipitation 0.00 in0.0 mm - -
Hour Temp Dew Point Humidity Winds Wind Gusts Pressure Precip Precip Rate Daily Precip Total
12:00 AM 44.3°F6.8°C 40.4°F4.7°C 86% Calm Calm -- 30.34 in1027.4 mb - 0.00 in0.0 mm 0.00 in0.0 mm
12:10 AM 44.2°F6.8°C 40.3°F4.6°C 86% Calm Calm -- 30.34 in1027.4 mb - 0.00 in0.0 mm 0.00 in0.0 mm
12:20 AM 44.1°F6.7°C 40.5°F4.7°C 87% Calm Calm -- 30.34 in1027.4 mb - 0.00 in0.0 mm 0.00 in0.0 mm
12:30 AM 44.0°F6.7°C 40.4°F4.7°C 87% Calm Calm -- 30.34 in1027.4 mb - 0.00 in0.0 mm 0.00 in0.0 mm
12:40 AM 43.8°F6.6°C 40.2°F4.6°C 87% Calm Calm -- 30.34 in1027.4 mb - 0.00 in0.0 mm 0.00 in0.0 mm
12:50 AM 43.6°F6.4°C 40.0°F4.4°C 87% Calm Calm -- 30.34 in1027.4 mb - 0.00 in0.0 mm 0.00 in0.0 mm
01:00 AM 43.4°F6.3°C 39.8°F4.3°C 87% Calm Calm -- 30.34 in1027.4 mb - 0.00 in0.0 mm 0.00 in0.0 mm
01:10 AM 43.3°F6.3°C 39.7°F4.3°C 87% Calm Calm -- 30.34 in1027.4 mb - 0.00 in0.0 mm 0.00 in0.0 mm
01:20 AM 43.1°F6.2°C 39.5°F4.2°C 87% Calm Calm -- 30.34 in1027.4 mb - 0.00 in0.0 mm 0.00 in0.0 mm
01:30 AM 42.9°F6.1°C 39.3°F4.1°C 87% Calm Calm -- 30.34 in1027.4 mb - 0.00 in0.0 mm 0.00 in0.0 mm
01:40 AM 42.7°F5.9°C 39.1°F3.9°C 87% Calm Calm -- 30.34 in1027.4 mb - 0.00 in0.0 mm 0.00 in0.0 mm
01:50 AM 42.4°F5.8°C 38.8°F3.8°C 87% Calm Calm -- 30.34 in1027.4 mb - 0.00 in0.0 mm 0.00 in0.0 mm
02:00 AM 42.3°F5.7°C 38.7°F3.7°C 87% Calm Calm -- 30.34 in1027.4 mb - 0.00 in0.0 mm 0.00 in0.0 mm
02:10 AM 42.3°F5.7°C 39.0°F3.9°C 88% Calm Calm -- 30.33 in1027.1 mb - 0.00 in0.0 mm 0.00 in0.0 mm
02:20 AM 42.1°F5.6°C 38.8°F3.8°C 88% Calm Calm -- 30.33 in1027.1 mb - 0.00 in0.0 mm 0.00 in0.0 mm
02:30 AM 41.8°F5.4°C 38.5°F3.6°C 88% Calm Calm -- 30.33 in1027.1 mb - 0.00 in0.0 mm 0.00 in0.0 mm
02:40 AM 41.7°F5.4°C 38.4°F3.6°C 88% Calm Calm -- 30.33 in1027.1 mb - 0.00 in0.0 mm 0.00 in0.0 mm
02:50 AM 41.6°F5.3°C 38.3°F3.5°C 88% Calm Calm -- 30.33 in1027.1 mb - 0.00 in0.0 mm 0.00 in0.0 mm
03:00 AM 41.4°F5.2°C 38.1°F3.4°C 88% Calm Calm -- 30.33 in1027.1 mb - 0.00 in0.0 mm 0.00 in0.0 mm
03:10 AM 41.3°F5.2°C 38.0°F3.3°C 88% Calm Calm -- 30.33 in1027.1 mb - 0.00 in0.0 mm 0.00 in0.0 mm
03:20 AM 41.4°F5.2°C 38.1°F3.4°C 88% Calm Calm -- 30.33 in1027.1 mb - 0.00 in0.0 mm 0.00 in0.0 mm
03:30 AM 41.2°F5.1°C 37.9°F3.3°C 88% Calm Calm -- 30.33 in1027.1 mb - 0.00 in0.0 mm 0.00 in0.0 mm
03:40 AM 41.2°F5.1°C 37.9°F3.3°C 88% Calm Calm -- 30.33 in1027.1 mb - 0.00 in0.0 mm 0.00 in0.0 mm
03:50 AM 41.3°F5.2°C 38.0°F3.3°C 88% Calm Calm -- 30.34 in1027.4 mb - 0.00 in0.0 mm 0.00 in0.0 mm
04:00 AM 41.4°F5.2°C 38.4°F3.6°C 89% Calm Calm -- 30.34 in1027.4 mb - 0.00 in0.0 mm 0.00 in0.0 mm
04:10 AM 41.4°F5.2°C 38.4°F3.6°C 89% Calm Calm -- 30.34 in1027.4 mb - 0.00 in0.0 mm 0.00 in0.0 mm
04:20 AM 41.3°F5.2°C 38.3°F3.5°C 89% Calm Calm -- 30.34 in1027.4 mb - 0.00 in0.0 mm 0.00 in0.0 mm
04:30 AM 41.0°F5.0°C 37.7°F3.2°C 88% Calm Calm -- 30.34 in1027.4 mb - 0.00 in0.0 mm 0.00 in0.0 mm
04:40 AM 40.9°F4.9°C 37.9°F3.3°C 89% Calm Calm -- 30.34 in1027.4 mb - 0.00 in0.0 mm 0.00 in0.0 mm
04:50 AM 40.9°F4.9°C 37.9°F3.3°C 89% Calm Calm -- 30.34 in1027.4 mb - 0.00 in0.0 mm 0.00 in0.0 mm
05:00 AM 40.9°F4.9°C 37.9°F3.3°C 89% Calm Calm -- 30.34 in1027.4 mb - 0.00 in0.0 mm 0.00 in0.0 mm
05:10 AM 41.0°F5.0°C 38.0°F3.3°C 89% Calm Calm -- 30.34 in1027.4 mb - 0.00 in0.0 mm 0.00 in0.0 mm
05:20 AM 41.0°F5.0°C 38.0°F3.3°C 89% Calm Calm -- 30.34 in1027.4 mb - 0.00 in0.0 mm 0.00 in0.0 mm
05:30 AM 40.8°F4.9°C 37.9°F3.3°C 89% Calm Calm -- 30.34 in1027.4 mb - 0.00 in0.0 mm 0.00 in0.0 mm
05:40 AM 40.7°F4.8°C 37.7°F3.2°C 89% Calm Calm -- 30.34 in1027.4 mb - 0.00 in0.0 mm 0.00 in0.0 mm
05:50 AM 40.7°F4.8°C 37.7°F3.2°C 89% Calm Calm -- 30.34 in1027.4 mb - 0.00 in0.0 mm 0.00 in0.0 mm
06:00 AM 40.8°F4.9°C 37.8°F3.2°C 89% Calm Calm -- 30.34 in1027.4 mb - 0.00 in0.0 mm 0.00 in0.0 mm
06:10 AM 40.8°F4.9°C 37.8°F3.2°C 89% Calm Calm -- 30.34 in1027.4 mb - 0.00 in0.0 mm 0.00 in0.0 mm
06:20 AM 40.8°F4.9°C 37.8°F3.2°C 89% Calm Calm -- 30.34 in1027.4 mb - 0.00 in0.0 mm 0.00 in0.0 mm
06:30 AM 41.0°F5.0°C 38.0°F3.3°C 89% Calm Calm -- 30.34 in1027.4 mb - 0.00 in0.0 mm 0.00 in0.0 mm
06:40 AM 41.2°F5.1°C 38.2°F3.4°C 89% Calm Calm -- 30.34 in1027.4 mb - 0.00 in0.0 mm 0.00 in0.0 mm
06:50 AM 41.3°F5.2°C 38.3°F3.5°C 89% Calm Calm -- 30.34 in1027.4 mb - 0.00 in0.0 mm 0.00 in0.0 mm
07:00 AM 41.6°F5.3°C 38.6°F3.7°C 89% Calm Calm -- 30.34 in1027.4 mb - 0.00 in0.0 mm 0.00 in0.0 mm
07:10 AM 42.2°F5.7°C 39.2°F4.0°C 89% Calm Calm -- 30.35 in1027.8 mb - 0.00 in0.0 mm 0.00 in0.0 mm
07:20 AM 42.9°F6.1°C 40.2°F4.6°C 90% Calm Calm -- 30.35 in1027.8 mb - 0.00 in0.0 mm 0.00 in0.0 mm
07:30 AM 44.1°F6.7°C 41.4°F5.2°C 90% Calm Calm -- 30.35 in1027.8 mb - 0.00 in0.0 mm 0.00 in0.0 mm
07:40 AM 45.3°F7.4°C 42.6°F5.9°C 90% Calm Calm -- 30.34 in1027.4 mb - 0.00 in0.0 mm 0.00 in0.0 mm
07:50 AM 46.4°F8.0°C 43.6°F6.4°C 90% Calm Calm -- 30.34 in1027.4 mb - 0.00 in0.0 mm 0.00 in0.0 mm
08:00 AM 47.4°F8.6°C 44.6°F7.0°C 90% Calm Calm -- 30.35 in1027.8 mb - 0.00 in0.0 mm 0.00 in0.0 mm
08:10 AM 48.3°F9.1°C 45.5°F7.5°C 90% Calm Calm -- 30.34 in1027.4 mb - 0.00 in0.0 mm 0.00 in0.0 mm
08:20 AM 49.7°F9.8°C 46.6°F8.1°C 89% Calm Calm -- 30.34 in1027.4 mb - 0.00 in0.0 mm 0.00 in0.0 mm
08:30 AM 51.6°F10.9°C 45.9°F7.7°C 81% Calm Calm -- 30.34 in1027.4 mb - 0.00 in0.0 mm 0.00 in0.0 mm
08:40 AM 53.2°F11.8°C 45.1°F7.3°C 74% Calm Calm -- 30.34 in1027.4 mb - 0.00 in0.0 mm 0.00 in0.0 mm
08:50 AM 54.4°F12.4°C 44.8°F7.1°C 70% Calm Calm -- 30.34 in1027.4 mb - 0.00 in0.0 mm 0.00 in0.0 mm
09:00 AM 55.4°F13.0°C 45.4°F7.4°C 69% Calm Calm -- 30.34 in1027.4 mb - 0.00 in0.0 mm 0.00 in0.0 mm
09:10 AM 56.3°F13.5°C 45.5°F7.5°C 67% Calm Calm -- 30.34 in1027.4 mb - 0.00 in0.0 mm 0.00 in0.0 mm
09:20 AM 57.3°F14.1°C 45.2°F7.3°C 64% Calm Calm -- 30.34 in1027.4 mb - 0.00 in0.0 mm 0.00 in0.0 mm
09:30 AM 58.0°F14.4°C 44.6°F7.0°C 61% Calm Calm 3.5 mph5.6 kmh 30.34 in1027.4 mb - 0.00 in0.0 mm 0.00 in0.0 mm
09:40 AM 58.6°F14.8°C 44.8°F7.1°C 60% Calm Calm -- 30.34 in1027.4 mb - 0.00 in0.0 mm 0.00 in0.0 mm
09:50 AM 59.5°F15.3°C 45.6°F7.6°C 60% Calm Calm -- 30.34 in1027.4 mb - 0.00 in0.0 mm 0.00 in0.0 mm
10:00 AM 60.4°F15.8°C 44.6°F7.0°C 56% Calm Calm 2.3 mph3.7 kmh 30.33 in1027.1 mb - 0.00 in0.0 mm 0.00 in0.0 mm
10:10 AM 60.9°F16.1°C 44.6°F7.0°C 55% Calm Calm 3.5 mph5.6 kmh 30.33 in1027.1 mb - 0.00 in0.0 mm 0.00 in0.0 mm
10:20 AM 61.4°F16.3°C 45.0°F7.2°C 55% Calm Calm 2.3 mph3.7 kmh 30.32 in1026.8 mb - 0.00 in0.0 mm 0.00 in0.0 mm
10:30 AM 62.1°F16.7°C 45.2°F7.3°C 54% Calm Calm 2.3 mph3.7 kmh 30.32 in1026.8 mb - 0.00 in0.0 mm 0.00 in0.0 mm
10:40 AM 62.1°F16.7°C 44.3°F6.8°C 52% Calm Calm -- 30.32 in1026.8 mb - 0.00 in0.0 mm 0.00 in0.0 mm
10:50 AM 62.4°F16.9°C 45.5°F7.5°C 54% Calm Calm -- 30.31 in1026.4 mb - 0.00 in0.0 mm 0.00 in0.0 mm
11:00 AM 62.7°F17.1°C 44.8°F7.1°C 52% Calm Calm -- 30.31 in1026.4 mb - 0.00 in0.0 mm 0.00 in0.0 mm
11:10 AM 62.8°F17.1°C 44.9°F7.2°C 52% 1.2 mph S1.9 kmh S 3.5 mph5.6 kmh 30.30 in1026.1 mb - 0.00 in0.0 mm 0.00 in0.0 mm
11:20 AM 63.4°F17.4°C 45.4°F7.4°C 52% Calm Calm -- 30.30 in1026.1 mb - 0.00 in0.0 mm 0.00 in0.0 mm
11:30 AM 63.8°F17.7°C 46.3°F7.9°C 53% Calm Calm -- 30.30 in1026.1 mb - 0.00 in0.0 mm 0.00 in0.0 mm
11:40 AM 64.1°F17.8°C 46.1°F7.8°C 52% Calm Calm -- 30.29 in1025.7 mb - 0.00 in0.0 mm 0.00 in0.0 mm
11:50 AM 64.5°F18.1°C 46.0°F7.8°C 51% Calm Calm -- 30.29 in1025.7 mb - 0.00 in0.0 mm 0.00 in0.0 mm
12:00 PM 64.0°F17.8°C 46.0°F7.8°C 52% Calm Calm -- 30.28 in1025.4 mb - 0.00 in0.0 mm 0.00 in0.0 mm
12:10 PM 64.3°F17.9°C 46.8°F8.2°C 53% Calm Calm -- 30.28 in1025.4 mb - 0.00 in0.0 mm 0.00 in0.0 mm
12:20 PM 65.4°F18.6°C 45.7°F7.6°C 49% Calm Calm -- 30.27 in1025.1 mb - 0.00 in0.0 mm 0.00 in0.0 mm
12:30 PM 65.6°F18.7°C 44.8°F7.1°C 47% 1.2 mph SSW1.9 kmh SSW 3.5 mph5.6 kmh 30.27 in1025.1 mb - 0.00 in0.0 mm 0.00 in0.0 mm
12:40 PM 65.4°F18.6°C 45.7°F7.6°C 49% Calm Calm 1.2 mph1.9 kmh 30.27 in1025.1 mb - 0.00 in0.0 mm 0.00 in0.0 mm
12:50 PM 66.1°F18.9°C 45.3°F7.4°C 47% Calm Calm -- 30.25 in1024.4 mb - 0.00 in0.0 mm 0.00 in0.0 mm
01:00 PM 66.5°F19.2°C 45.6°F7.6°C 47% Calm Calm -- 30.25 in1024.4 mb - 0.00 in0.0 mm 0.00 in0.0 mm
01:10 PM 66.3°F19.1°C 44.9°F7.2°C 46% Calm Calm -- 30.24 in1024.0 mb - 0.00 in0.0 mm 0.00 in0.0 mm
01:20 PM 66.3°F19.1°C 44.3°F6.8°C 45% Calm Calm -- 30.24 in1024.0 mb - 0.00 in0.0 mm 0.00 in0.0 mm
01:30 PM 65.9°F18.8°C 44.5°F6.9°C 46% Calm Calm 1.2 mph1.9 kmh 30.23 in1023.7 mb - 0.00 in0.0 mm 0.00 in0.0 mm
01:40 PM 66.5°F19.2°C 45.6°F7.6°C 47% Calm Calm -- 30.23 in1023.7 mb - 0.00 in0.0 mm 0.00 in0.0 mm
01:50 PM 66.9°F19.4°C 44.8°F7.1°C 45% Calm Calm 2.3 mph3.7 kmh 30.22 in1023.4 mb - 0.00 in0.0 mm 0.00 in0.0 mm
02:00 PM 66.5°F19.2°C 44.5°F6.9°C 45% Calm Calm -- 30.22 in1023.4 mb - 0.00 in0.0 mm 0.00 in0.0 mm
02:10 PM 66.4°F19.1°C 45.0°F7.2°C 46% Calm Calm -- 30.22 in1023.4 mb - 0.00 in0.0 mm 0.00 in0.0 mm
02:20 PM 66.2°F19.0°C 45.9°F7.7°C 48% Calm Calm -- 30.21 in1023.0 mb - 0.00 in0.0 mm 0.00 in0.0 mm
02:30 PM 65.8°F18.8°C 45.0°F7.2°C 47% 1.2 mph ESE1.9 kmh ESE 3.5 mph5.6 kmh 30.21 in1023.0 mb - 0.00 in0.0 mm 0.00 in0.0 mm
02:40 PM 65.9°F18.8°C 45.1°F7.3°C 47% Calm Calm -- 30.21 in1023.0 mb - 0.00 in0.0 mm 0.00 in0.0 mm
02:50 PM 65.6°F18.7°C 44.8°F7.1°C 47% 1.2 mph E1.9 kmh E 1.2 mph1.9 kmh 30.21 in1023.0 mb - 0.00 in0.0 mm 0.00 in0.0 mm
03:00 PM 65.4°F18.6°C 45.2°F7.3°C 48% 1.2 mph SE1.9 kmh SE 6.9 mph11.1 kmh 30.20 in1022.7 mb - 0.00 in0.0 mm 0.00 in0.0 mm
03:10 PM 65.1°F18.4°C 45.5°F7.5°C 49% Calm Calm -- 30.20 in1022.7 mb - 0.00 in0.0 mm 0.00 in0.0 mm
03:20 PM 64.5°F18.1°C 46.5°F8.1°C 52% Calm Calm -- 30.19 in1022.4 mb - 0.00 in0.0 mm 0.00 in0.0 mm
03:30 PM 63.7°F17.6°C 49.1°F9.5°C 59% Calm Calm -- 30.18 in1022.0 mb - 0.00 in0.0 mm 0.00 in0.0 mm
03:40 PM 63.8°F17.7°C 47.4°F8.6°C 55% Calm Calm 3.5 mph5.6 kmh 30.18 in1022.0 mb - 0.00 in0.0 mm 0.00 in0.0 mm
03:50 PM 64.5°F18.1°C 47.5°F8.6°C 54% Calm Calm -- 30.18 in1022.0 mb - 0.00 in0.0 mm 0.00 in0.0 mm
04:00 PM 64.6°F18.1°C 48.1°F8.9°C 55% Calm Calm -- 30.17 in1021.7 mb - 0.00 in0.0 mm 0.00 in0.0 mm
04:10 PM 64.8°F18.2°C 47.3°F8.5°C 53% Calm Calm -- 30.17 in1021.7 mb - 0.00 in0.0 mm 0.00 in0.0 mm
04:20 PM 65.0°F18.3°C 45.9°F7.7°C 50% Calm Calm -- 30.16 in1021.3 mb - 0.00 in0.0 mm 0.00 in0.0 mm
04:30 PM 65.1°F18.4°C 45.5°F7.5°C 49% Calm Calm -- 30.16 in1021.3 mb - 0.00 in0.0 mm 0.00 in0.0 mm
04:40 PM 65.2°F18.4°C 45.0°F7.2°C 48% Calm Calm 2.3 mph3.7 kmh 30.15 in1021.0 mb - 0.00 in0.0 mm 0.00 in0.0 mm
04:50 PM 64.7°F18.2°C 45.1°F7.3°C 49% Calm Calm -- 30.15 in1021.0 mb - 0.00 in0.0 mm 0.00 in0.0 mm
05:00 PM 64.2°F17.9°C 45.1°F7.3°C 50% Calm Calm -- 30.14 in1020.7 mb - 0.00 in0.0 mm 0.00 in0.0 mm
05:10 PM 64.0°F17.8°C 45.5°F7.5°C 51% Calm Calm -- 30.14 in1020.7 mb - 0.00 in0.0 mm 0.00 in0.0 mm
05:20 PM 63.6°F17.6°C 45.1°F7.3°C 51% Calm Calm -- 30.14 in1020.7 mb - 0.00 in0.0 mm 0.00 in0.0 mm
05:30 PM 63.3°F17.4°C 44.4°F6.9°C 50% Calm Calm -- 30.14 in1020.7 mb - 0.00 in0.0 mm 0.00 in0.0 mm
05:40 PM 63.2°F17.3°C 44.2°F6.8°C 50% Calm Calm -- 30.13 in1020.3 mb - 0.00 in0.0 mm 0.00 in0.0 mm
05:50 PM 62.9°F17.2°C 44.5°F6.9°C 51% Calm Calm -- 30.13 in1020.3 mb - 0.00 in0.0 mm 0.00 in0.0 mm
06:00 PM 62.5°F16.9°C 45.6°F7.6°C 54% Calm Calm -- 30.13 in1020.3 mb - 0.00 in0.0 mm 0.00 in0.0 mm
06:10 PM 62.1°F16.7°C 43.7°F6.5°C 51% Calm Calm -- 30.12 in1020.0 mb - 0.00 in0.0 mm 0.00 in0.0 mm
06:20 PM 62.3°F16.8°C 43.9°F6.6°C 51% Calm Calm -- 30.12 in1020.0 mb - 0.00 in0.0 mm 0.00 in0.0 mm
06:30 PM 62.1°F16.7°C 43.7°F6.5°C 51% Calm Calm -- 30.12 in1020.0 mb - 0.00 in0.0 mm 0.00 in0.0 mm
06:40 PM 62.2°F16.8°C 43.8°F6.6°C 51% Calm Calm -- 30.12 in1020.0 mb - 0.00 in0.0 mm 0.00 in0.0 mm
06:50 PM 61.9°F16.6°C 44.1°F6.7°C 52% Calm Calm -- 30.12 in1020.0 mb - 0.00 in0.0 mm 0.00 in0.0 mm
07:00 PM 62.0°F16.7°C 43.7°F6.5°C 51% Calm Calm -- 30.12 in1020.0 mb - 0.00 in0.0 mm 0.00 in0.0 mm
07:10 PM 61.9°F16.6°C 44.6°F7.0°C 53% Calm Calm -- 30.12 in1020.0 mb - 0.00 in0.0 mm 0.00 in0.0 mm
07:20 PM 61.6°F16.4°C 44.8°F7.1°C 54% Calm Calm -- 30.12 in1020.0 mb - 0.00 in0.0 mm 0.00 in0.0 mm
07:30 PM 61.5°F16.4°C 44.2°F6.8°C 53% Calm Calm -- 30.12 in1020.0 mb - 0.00 in0.0 mm 0.00 in0.0 mm
07:40 PM 61.7°F16.5°C 43.9°F6.6°C 52% Calm Calm -- 30.12 in1020.0 mb - 0.00 in0.0 mm 0.00 in0.0 mm
07:50 PM 61.4°F16.3°C 45.1°F7.3°C 55% Calm Calm -- 30.12 in1020.0 mb - 0.00 in0.0 mm 0.00 in0.0 mm
08:00 PM 60.8°F16.0°C 45.5°F7.5°C 57% Calm Calm -- 30.12 in1020.0 mb - 0.00 in0.0 mm 0.00 in0.0 mm
08:10 PM 60.5°F15.8°C 45.6°F7.6°C 58% Calm Calm -- 30.12 in1020.0 mb - 0.00 in0.0 mm 0.00 in0.0 mm
08:20 PM 60.5°F15.8°C 45.6°F7.6°C 58% Calm Calm -- 30.12 in1020.0 mb - 0.00 in0.0 mm 0.00 in0.0 mm
08:30 PM 60.4°F15.8°C 45.5°F7.5°C 58% Calm Calm -- 30.12 in1020.0 mb - 0.00 in0.0 mm 0.00 in0.0 mm
08:40 PM 60.1°F15.6°C 45.7°F7.6°C 59% Calm Calm -- 30.12 in1020.0 mb - 0.00 in0.0 mm 0.00 in0.0 mm
08:50 PM 59.9°F15.5°C 46.0°F7.8°C 60% Calm Calm -- 30.12 in1020.0 mb - 0.00 in0.0 mm 0.00 in0.0 mm
09:00 PM 59.9°F15.5°C 46.4°F8.0°C 61% Calm Calm -- 30.12 in1020.0 mb - 0.00 in0.0 mm 0.00 in0.0 mm
09:10 PM 59.7°F15.4°C 46.7°F8.2°C 62% Calm Calm -- 30.12 in1020.0 mb - 0.00 in0.0 mm 0.00 in0.0 mm
09:20 PM 59.5°F15.3°C 46.8°F8.2°C 63% Calm Calm -- 30.12 in1020.0 mb - 0.00 in0.0 mm 0.00 in0.0 mm
09:30 PM 59.2°F15.1°C 46.6°F8.1°C 63% Calm Calm -- 30.12 in1020.0 mb - 0.00 in0.0 mm 0.00 in0.0 mm
09:40 PM 59.3°F15.2°C 46.3°F7.9°C 62% Calm Calm -- 30.11 in1019.6 mb - 0.00 in0.0 mm 0.00 in0.0 mm
09:50 PM 59.8°F15.4°C 46.3°F7.9°C 61% Calm Calm -- 30.11 in1019.6 mb - 0.00 in0.0 mm 0.00 in0.0 mm
10:00 PM 60.2°F15.7°C 46.3°F7.9°C 60% Calm Calm -- 30.12 in1020.0 mb - 0.00 in0.0 mm 0.00 in0.0 mm
10:10 PM 60.5°F15.8°C 46.1°F7.8°C 59% Calm Calm -- 30.12 in1020.0 mb - 0.00 in0.0 mm 0.00 in0.0 mm
10:20 PM 60.8°F16.0°C 45.9°F7.7°C 58% Calm Calm -- 30.11 in1019.6 mb - 0.00 in0.0 mm 0.00 in0.0 mm
10:30 PM 60.9°F16.1°C 46.0°F7.8°C 58% Calm Calm -- 30.11 in1019.6 mb - 0.00 in0.0 mm 0.00 in0.0 mm
10:40 PM 61.0°F16.1°C 45.7°F7.6°C 57% Calm Calm -- 30.11 in1019.6 mb - 0.00 in0.0 mm 0.00 in0.0 mm
10:50 PM 61.2°F16.2°C 45.4°F7.4°C 56% Calm Calm -- 30.11 in1019.6 mb - 0.00 in0.0 mm 0.00 in0.0 mm
11:00 PM 61.1°F16.2°C 44.8°F7.1°C 55% Calm Calm -- 30.11 in1019.6 mb - 0.00 in0.0 mm 0.00 in0.0 mm
11:10 PM 61.1°F16.2°C 45.3°F7.4°C 56% Calm Calm -- 30.10 in1019.3 mb - 0.00 in0.0 mm 0.00 in0.0 mm
11:20 PM 61.1°F16.2°C 44.8°F7.1°C 55% Calm Calm -- 30.11 in1019.6 mb - 0.00 in0.0 mm 0.00 in0.0 mm
11:30 PM 61.0°F16.1°C 44.7°F7.1°C 55% Calm Calm -- 30.11 in1019.6 mb - 0.00 in0.0 mm 0.00 in0.0 mm
11:40 PM 60.9°F16.1°C 45.1°F7.3°C 56% Calm Calm -- 30.10 in1019.3 mb - 0.00 in0.0 mm 0.00 in0.0 mm
11:50 PM 60.7°F15.9°C 44.9°F7.2°C 56% Calm Calm 2.3 mph3.7 kmh 30.10 in1019.3 mb - 0.00 in0.0 mm 0.00 in0.0 mm